Time;durP1;ratioP1;P1;durP2;ratioP2;P2;SDS_P1;SDS_P2;PMS_P1;PMS_P2;Temp;Humidity;BMP_temperature;BMP_pressure;BME280_temperature;BME280_humidity;BME280_pressure;Samples;Min_cycle;Max_cycle;Signal;HPM_P1;HPM_P2
2020/12/22 00:01:51;;;;;;;76.67;38.90;;;;;;;6.80;85.66;95898.06;5021617;28;20479;-82
2020/12/22 00:04:17;;;;;;;62.67;33.90;;;;;;;6.82;86.25;95894.44;5022020;28;20502;-81
2020/12/22 00:07:04;;;;;;;66.30;35.53;;;;;;;6.84;85.96;95895.19;5021761;28;20448;-83
2020/12/22 00:09:30;;;;;;;59.90;32.83;;;;;;;6.81;85.27;95900.59;4979872;28;20457;-83
2020/12/22 00:11:56;;;;;;;58.93;33.87;;;;;;;6.89;85.37;95894.09;4980036;28;20481;-83
2020/12/22 00:14:24;;;;;;;85.23;39.20;;;;;;;6.89;85.26;95894.94;4981226;28;20468;-84
2020/12/22 00:16:51;;;;;;;83.13;39.30;;;;;;;6.90;85.53;95899.22;4948145;28;20448;-83
2020/12/22 00:19:17;;;;;;;84.30;38.80;;;;;;;6.92;85.21;95901.75;4981112;28;20460;-84
2020/12/22 00:21:44;;;;;;;64.70;32.60;;;;;;;6.92;85.65;95902.59;4978853;28;20484;-83
2020/12/22 00:24:10;;;;;;;53.07;28.90;;;;;;;6.92;85.46;95900.00;4980128;28;20571;-83
2020/12/22 00:26:36;;;;;;;57.77;31.43;;;;;;;6.82;85.62;95904.03;4980113;28;20480;-83
2020/12/22 00:29:03;;;;;;;48.57;29.10;;;;;;;6.80;85.74;95905.88;4980275;28;20547;-84
2020/12/22 00:31:35;;;;;;;55.50;29.37;;;;;;;6.79;86.06;95907.66;4980545;28;20464;-84
2020/12/22 00:34:02;;;;;;;50.27;28.83;;;;;;;6.79;85.89;95902.44;5001402;28;20451;-84
2020/12/22 00:36:29;;;;;;;45.57;26.47;;;;;;;6.82;86.50;95911.84;5022422;28;20455;-84
2020/12/22 00:38:55;;;;;;;52.77;29.17;;;;;;;6.86;86.42;95907.31;5021361;28;20489;-83
2020/12/22 00:41:22;;;;;;;51.50;27.93;;;;;;;6.87;86.81;95907.22;5021078;28;20581;-83
2020/12/22 00:43:50;;;;;;;54.30;28.10;;;;;;;6.93;86.68;95913.88;5022347;28;20479;-83
2020/12/22 00:46:17;;;;;;;52.43;29.10;;;;;;;6.92;86.24;95913.03;5022440;28;20454;-83
2020/12/22 00:48:48;;;;;;;55.80;32.03;;;;;;;6.93;85.01;95917.31;5021146;28;20447;-83
2020/12/22 00:51:22;;;;;;;60.17;32.10;;;;;;;6.93;85.80;95914.72;5021097;28;20455;-82
2020/12/22 00:53:49;;;;;;;58.13;30.43;;;;;;;6.96;86.15;95911.13;5017135;28;20454;-82
2020/12/22 00:56:15;;;;;;;49.53;30.23;;;;;;;6.98;85.95;95917.09;5015616;28;20459;-83
2020/12/22 00:58:43;;;;;;;57.53;33.50;;;;;;;6.99;85.53;95913.56;5015449;28;20477;-83
2020/12/22 01:01:09;;;;;;;51.60;29.80;;;;;;;7.00;85.97;95908.25;5017238;28;20828;-83
2020/12/22 01:03:36;;;;;;;50.83;30.40;;;;;;;7.04;86.00;95919.38;5016179;28;20537;-83
2020/12/22 01:06:03;;;;;;;50.63;29.37;;;;;;;7.07;85.68;95917.44;4997947;28;20808;-82
2020/12/22 01:08:29;;;;;;;51.37;30.37;;;;;;;7.02;85.44;95913.41;5014811;28;20931;-82
2020/12/22 01:10:56;;;;;;;58.30;28.60;;;;;;;6.94;84.89;95907.72;5015877;28;20456;-83
2020/12/22 01:13:22;;;;;;;45.43;29.20;;;;;;;6.83;85.30;95910.94;5014875;28;20451;-82
2020/12/22 01:15:49;;;;;;;51.27;31.10;;;;;;;6.77;86.29;95909.50;5014355;28;21001;-83
2020/12/22 01:18:15;;;;;;;54.93;28.40;;;;;;;6.77;86.48;95912.09;5014136;28;20476;-83
2020/12/22 01:20:44;;;;;;;48.10;28.80;;;;;;;6.76;86.67;95901.75;5013758;28;20486;-83
2020/12/22 01:23:12;;;;;;;49.70;28.47;;;;;;;6.73;87.47;95902.78;5013053;28;20528;-83
2020/12/22 01:25:38;;;;;;;60.10;30.07;;;;;;;6.73;88.09;95900.16;5015588;28;20481;-84
2020/12/22 01:28:04;;;;;;;55.70;28.90;;;;;;;6.73;88.15;95897.56;5015916;28;20791;-83
2020/12/22 01:30:31;;;;;;;48.37;28.00;;;;;;;6.73;88.27;95900.16;5014972;28;20444;-82
2020/12/22 01:32:57;;;;;;;47.97;29.10;;;;;;;6.74;87.77;95901.00;5014632;28;20835;-83
2020/12/22 01:35:24;;;;;;;52.50;27.47;;;;;;;6.77;87.29;95899.06;5015349;28;20463;-83
2020/12/22 01:37:50;;;;;;;55.90;30.13;;;;;;;6.82;87.49;95901.44;5015318;28;20541;-83
2020/12/22 01:40:17;;;;;;;56.50;33.63;;;;;;;6.82;87.60;95897.03;5015267;28;20505;-84
2020/12/22 01:42:44;;;;;;;61.93;32.03;;;;;;;6.84;87.56;95896.97;4997104;28;20925;-84
2020/12/22 01:45:11;;;;;;;56.23;30.63;;;;;;;6.88;87.29;95895.03;5015142;28;20461;-82
2020/12/22 01:47:44;;;;;;;68.17;33.57;;;;;;;6.89;87.95;95892.34;5015703;28;20459;-82
2020/12/22 01:50:11;;;;;;;60.40;33.47;;;;;;;6.91;87.70;95893.09;5014940;28;20439;-83
2020/12/22 01:52:39;;;;;;;57.40;32.63;;;;;;;6.94;87.04;95895.56;5014209;28;20458;-83
2020/12/22 01:55:06;;;;;;;54.13;32.20;;;;;;;6.96;87.18;95892.88;5013425;28;20506;-84
2020/12/22 01:57:33;;;;;;;55.73;32.23;;;;;;;6.98;87.41;95894.47;5013210;28;20844;-84
2020/12/22 02:00:00;;;;;;;59.10;32.50;;;;;;;6.96;87.07;95887.66;5013468;28;20443;-83
2020/12/22 02:02:27;;;;;;;61.73;33.73;;;;;;;6.97;87.16;95891.94;5016053;28;20451;-83
2020/12/22 02:04:54;;;;;;;68.97;35.10;;;;;;;6.92;86.94;95892.16;5014633;28;20443;-84
2020/12/22 02:07:20;;;;;;;80.17;40.00;;;;;;;6.89;87.41;95886.28;5013205;28;20461;-83
2020/12/22 02:09:49;;;;;;;77.40;39.23;;;;;;;6.88;86.97;95890.66;5013384;28;20454;-82
2020/12/22 02:12:16;;;;;;;68.90;38.37;;;;;;;6.84;86.93;95889.13;5013179;28;20455;-82
2020/12/22 02:14:43;;;;;;;76.03;41.67;;;;;;;6.81;87.03;95884.94;5013144;28;20437;-82
2020/12/22 02:17:10;;;;;;;74.17;41.97;;;;;;;6.79;86.97;95880.72;5012840;28;20443;-83
2020/12/22 02:19:37;;;;;;;79.70;40.17;;;;;;;6.74;86.90;95883.59;5013428;28;20796;-82
2020/12/22 02:22:04;;;;;;;79.43;38.93;;;;;;;6.69;87.13;95876.94;5012666;28;21006;-82
2020/12/22 02:24:32;;;;;;;81.53;38.00;;;;;;;6.59;87.42;95879.16;5012826;28;20817;-82
2020/12/22 02:26:59;;;;;;;75.33;37.63;;;;;;;6.52;88.11;95877.81;5013156;28;20447;-82
2020/12/22 02:29:25;;;;;;;71.90;36.83;;;;;;;6.39;88.72;95875.03;4994456;28;20447;-82
2020/12/22 02:31:51;;;;;;;87.07;38.27;;;;;;;6.39;89.40;95868.97;5012991;28;20451;-82
2020/12/22 02:34:18;;;;;;;73.37;37.93;;;;;;;6.35;89.10;95876.09;5012796;28;20453;-82
2020/12/22 02:36:44;;;;;;;72.80;34.93;;;;;;;6.22;89.74;95867.25;5013200;28;20459;-81
2020/12/22 02:39:11;;;;;;;75.87;35.33;;;;;;;6.17;90.05;95867.50;5012984;28;20987;-82
2020/12/22 02:41:38;;;;;;;72.90;36.13;;;;;;;6.14;91.20;95872.03;5012702;28;20475;-82
2020/12/22 02:44:04;;;;;;;78.40;37.30;;;;;;;6.16;90.52;95875.38;4994161;28;20435;-83
2020/12/22 02:46:31;;;;;;;68.87;38.17;;;;;;;6.26;90.57;95875.75;5012993;28;20506;-82
2020/12/22 02:48:57;;;;;;;79.30;39.70;;;;;;;6.34;90.53;95869.19;5012670;28;20446;-82
2020/12/22 02:51:23;;;;;;;76.33;39.00;;;;;;;6.43;90.71;95867.88;5012639;28;20836;-82
2020/12/22 02:53:50;;;;;;;74.27;38.10;;;;;;;6.51;90.53;95865.72;5013229;28;20500;-83
2020/12/22 02:56:17;;;;;;;61.57;34.40;;;;;;;6.61;89.69;95864.28;5012593;28;20435;-83
2020/12/22 02:58:44;;;;;;;65.27;36.33;;;;;;;6.65;88.90;95868.44;5012621;28;20451;-83
2020/12/22 03:01:11;;;;;;;60.20;34.77;;;;;;;6.66;88.72;95870.13;5012441;28;20487;-83
2020/12/22 03:03:37;;;;;;;69.03;34.97;;;;;;;6.75;88.03;95869.63;4993860;28;20482;-82
2020/12/22 03:06:03;;;;;;;58.97;32.03;;;;;;;6.74;88.38;95867.94;5012451;28;20463;-83
2020/12/22 03:08:30;;;;;;;69.63;32.67;;;;;;;6.73;88.37;95865.41;5012608;28;20462;-82
2020/12/22 03:10:56;;;;;;;52.90;30.73;;;;;;;6.69;88.82;95874.34;4993886;28;20458;-82
2020/12/22 03:13:24;;;;;;;62.67;32.03;;;;;;;6.67;88.61;95869.19;4993952;28;20443;-82
2020/12/22 03:15:50;;;;;;;55.20;30.73;;;;;;;6.68;89.29;95863.06;5012562;28;20451;-82
2020/12/22 03:18:18;;;;;;;65.70;32.50;;;;;;;6.63;89.76;95859.81;5012774;28;20457;-82
2020/12/22 03:20:44;;;;;;;51.27;29.03;;;;;;;6.65;90.18;95851.91;5012659;28;20483;-82
2020/12/22 03:23:11;;;;;;;49.67;27.93;;;;;;;6.64;89.80;95856.28;5013029;28;20479;-83
2020/12/22 03:25:38;;;;;;;59.50;29.10;;;;;;;6.69;89.75;95850.84;5012452;28;20447;-82
2020/12/22 03:28:04;;;;;;;55.67;29.70;;;;;;;6.68;89.89;95847.41;5012662;28;20998;-82
2020/12/22 03:30:31;;;;;;;55.60;28.60;;;;;;;6.70;89.24;95844.72;5012812;28;20829;-82
2020/12/22 03:32:58;;;;;;;49.77;27.80;;;;;;;6.49;89.29;95844.09;5011908;28;20464;-82
2020/12/22 03:35:24;;;;;;;56.23;30.83;;;;;;;6.29;90.57;95847.75;5011831;28;20928;-82
2020/12/22 03:37:51;;;;;;;52.13;30.17;;;;;;;6.20;91.00;95845.63;5011978;28;20453;-82
2020/12/22 03:40:20;;;;;;;50.83;29.33;;;;;;;6.29;91.39;95846.91;5012097;28;20526;-82
2020/12/22 03:42:46;;;;;;;61.87;33.87;;;;;;;6.34;91.23;95843.13;5012215;28;20445;-82
2020/12/22 03:45:16;;;;;;;52.83;28.03;;;;;;;6.29;90.37;95846.91;5009222;28;20500;-82
2020/12/22 03:47:44;;;;;;;59.03;33.53;;;;;;;6.26;90.59;95852.28;5015583;28;20447;-82
2020/12/22 03:50:11;;;;;;;62.03;31.17;;;;;;;6.27;90.94;95849.59;5015663;28;20449;-82
2020/12/22 03:52:37;;;;;;;52.33;30.57;;;;;;;6.28;90.56;95855.66;5015413;28;20973;-82
2020/12/22 03:55:04;;;;;;;57.83;31.93;;;;;;;6.34;90.34;95850.09;5015660;28;20439;-82
2020/12/22 03:57:31;;;;;;;67.83;35.23;;;;;;;6.32;90.96;95850.19;5015488;28;20452;-82
2020/12/22 03:59:57;;;;;;;57.80;31.73;;;;;;;6.28;90.65;95843.47;5015131;28;20444;-82
2020/12/22 04:02:23;;;;;;;56.73;31.40;;;;;;;6.30;90.35;95845.97;5015382;28;20482;-82
2020/12/22 04:04:50;;;;;;;62.00;34.17;;;;;;;6.30;90.74;95846.81;5015143;28;20450;-82
2020/12/22 04:07:17;;;;;;;64.83;33.70;;;;;;;6.32;90.23;95851.97;4996952;28;20462;-82
2020/12/22 04:09:43;;;;;;;59.23;35.40;;;;;;;6.32;90.57;95844.97;5014987;28;20868;-82
2020/12/22 04:12:09;;;;;;;63.67;35.97;;;;;;;6.24;90.29;95835.88;5015114;28;20455;-82
2020/12/22 04:14:36;;;;;;;71.87;39.10;;;;;;;6.10;91.34;95834.84;4996422;28;20447;-82
2020/12/22 04:17:02;;;;;;;68.07;41.40;;;;;;;6.01;91.83;95845.75;5014858;28;20839;-82
2020/12/22 04:19:29;;;;;;;68.87;36.20;;;;;;;5.95;91.73;95840.84;5014655;28;20443;-82
2020/12/22 04:21:57;;;;;;;71.40;37.63;;;;;;;6.11;91.30;95846.13;5015147;28;20909;-82
2020/12/22 04:24:23;;;;;;;59.77;33.67;;;;;;;6.25;91.35;95850.59;4996212;28;20471;-82
2020/12/22 04:26:49;;;;;;;65.93;34.83;;;;;;;6.32;91.04;95846.75;5014763;28;20458;-82
2020/12/22 04:29:16;;;;;;;63.70;33.03;;;;;;;6.36;90.62;95854.34;5014721;28;20451;-82
2020/12/22 04:31:42;;;;;;;63.50;34.77;;;;;;;6.29;90.17;95846.91;4996401;28;20535;-82
2020/12/22 04:34:08;;;;;;;63.27;35.20;;;;;;;6.37;90.34;95849.97;5014710;28;20455;-82
2020/12/22 04:36:35;;;;;;;68.37;34.83;;;;;;;6.44;89.65;95854.78;5014590;28;20478;-82
2020/12/22 04:39:04;;;;;;;59.73;33.93;;;;;;;6.45;89.57;95850.41;5014995;28;20526;-81
2020/12/22 04:41:31;;;;;;;58.90;34.50;;;;;;;6.49;89.15;95851.91;5014634;28;20986;-82
2020/12/22 04:43:59;;;;;;;61.23;35.07;;;;;;;6.54;89.82;95852.50;5014804;28;20454;-82
2020/12/22 04:46:27;;;;;;;65.10;35.40;;;;;;;6.54;89.43;95857.72;5014266;28;20479;-82
2020/12/22 04:48:55;;;;;;;53.40;30.80;;;;;;;6.52;88.63;95855.19;5014239;28;20522;-82
2020/12/22 04:51:22;;;;;;;62.87;33.20;;;;;;;6.56;88.10;95857.63;5014561;28;20940;-82
2020/12/22 04:53:49;;;;;;;59.97;30.77;;;;;;;6.47;88.63;95851.16;5014301;28;20454;-82
2020/12/22 04:56:16;;;;;;;62.73;34.27;;;;;;;6.40;88.14;95852.41;5011762;28;20443;-82
2020/12/22 04:58:43;;;;;;;61.60;34.10;;;;;;;6.44;88.75;95856.53;5014456;28;20505;-82
2020/12/22 05:01:09;;;;;;;61.33;34.03;;;;;;;6.48;88.36;95858.91;5014431;28;20487;-82
2020/12/22 05:03:36;;;;;;;64.90;34.97;;;;;;;6.51;89.06;95857.88;5014112;28;20449;-82
2020/12/22 05:06:03;;;;;;;61.80;35.23;;;;;;;6.51;89.25;95857.88;5014278;28;20459;-82
2020/12/22 05:08:29;;;;;;;65.80;32.57;;;;;;;6.52;89.22;95863.03;5014365;28;20509;-82
2020/12/22 05:10:55;;;;;;;53.90;31.00;;;;;;;6.53;88.57;95869.06;5014064;28;20446;-82
2020/12/22 05:13:23;;;;;;;59.07;33.10;;;;;;;6.55;89.13;95871.59;5013892;28;20455;-83
2020/12/22 05:15:50;;;;;;;57.63;32.30;;;;;;;6.53;88.98;95867.31;5013858;28;20443;-82
2020/12/22 05:18:20;;;;;;;53.03;28.90;;;;;;;6.54;87.94;95862.94;4996045;28;20458;-82
2020/12/22 05:20:48;;;;;;;55.30;31.50;;;;;;;6.55;88.31;95858.56;5013695;28;20479;-82
2020/12/22 05:23:15;;;;;;;72.97;33.00;;;;;;;6.56;88.74;95850.66;5013791;28;21066;-82
2020/12/22 05:25:43;;;;;;;58.43;32.60;;;;;;;6.59;88.65;95849.66;5013609;28;20447;-82
2020/12/22 05:28:09;;;;;;;57.00;32.10;;;;;;;6.57;88.43;95852.34;5014159;28;21129;-82
2020/12/22 05:30:39;;;;;;;49.80;29.80;;;;;;;6.60;87.78;95857.38;5013793;28;20940;-82
2020/12/22 05:33:06;;;;;;;55.63;31.10;;;;;;;6.61;88.31;95860.84;5013343;28;20450;-82
2020/12/22 05:35:37;;;;;;;52.20;30.87;;;;;;;6.64;87.81;95858.91;5013251;28;20447;-82
2020/12/22 05:38:04;;;;;;;59.63;32.00;;;;;;;6.66;88.18;95858.84;5013471;28;20806;-82
2020/12/22 05:40:31;;;;;;;49.63;27.40;;;;;;;6.62;87.82;95862.53;5013008;28;20443;-82
2020/12/22 05:42:57;;;;;;;60.83;30.60;;;;;;;6.58;88.08;95861.84;5013581;28;20455;-82
2020/12/22 05:45:24;;;;;;;44.17;26.30;;;;;;;6.59;87.94;95858.31;5013247;28;20568;-82
2020/12/22 05:47:54;;;;;;;53.77;29.43;;;;;;;6.53;87.75;95864.69;5013264;28;20450;-82
2020/12/22 05:50:21;;;;;;;49.67;29.00;;;;;;;6.53;88.26;95858.66;4994884;28;20875;-82
2020/12/22 05:52:47;;;;;;;59.13;30.07;;;;;;;6.55;88.45;95867.22;5013117;28;20459;-82
2020/12/22 05:55:25;;;;;;;52.03;28.83;;;;;;;6.59;88.40;95866.13;5012965;28;20455;-82
2020/12/22 05:58:06;;;;;;;55.60;30.33;;;;;;;6.62;88.44;95867.72;5013534;28;20442;-88
2020/12/22 06:00:33;;;;;;;64.63;32.20;;;;;;;6.62;89.66;95868.56;5015399;28;20450;-89
2020/12/22 06:03:06;;;;;;;61.03;29.97;;;;;;;6.68;89.24;95863.06;5016424;28;20446;-86
2020/12/22 06:05:37;;;;;;;60.67;30.80;;;;;;;6.75;88.35;95872.22;5012972;28;20525;-81
2020/12/22 06:08:05;;;;;;;57.10;32.07;;;;;;;6.78;87.83;95868.59;5012323;28;20455;-81
2020/12/22 06:10:33;;;;;;;50.83;29.33;;;;;;;6.76;87.66;95866.09;5012846;28;20488;-81
2020/12/22 06:13:00;;;;;;;63.63;31.23;;;;;;;6.75;87.57;95872.22;5012867;28;20439;-80
2020/12/22 06:15:26;;;;;;;63.50;37.47;;;;;;;6.67;87.34;95877.03;4994182;28;20450;-80
2020/12/22 06:17:53;;;;;;;78.00;41.57;;;;;;;6.65;88.07;95868.44;5012589;28;20454;-80
2020/12/22 06:20:23;;;;;;;77.17;38.07;;;;;;;6.62;88.17;95867.72;5012819;28;20455;-80
2020/12/22 06:22:50;;;;;;;68.77;33.70;;;;;;;6.62;87.96;95859.91;5012532;28;20474;-80
2020/12/22 06:25:21;;;;;;;87.20;43.83;;;;;;;6.57;87.62;95865.38;5012750;28;20451;-80
2020/12/22 06:27:48;;;;;;;76.07;37.93;;;;;;;6.59;88.07;95863.53;5012602;28;20495;-81
2020/12/22 06:30:16;;;;;;;63.50;36.30;;;;;;;6.59;87.92;95860.06;5017134;28;20914;-80
2020/12/22 06:32:43;;;;;;;66.50;36.80;;;;;;;6.62;88.57;95860.75;5030997;28;20516;-81
2020/12/22 06:35:30;;;;;;;59.20;34.80;;;;;;;6.70;88.42;95862.97;5023903;28;20449;-80
2020/12/22 06:37:58;;;;;;;73.03;38.77;;;;;;;6.76;88.13;95858.25;5032286;28;20449;-80
2020/12/22 06:40:53;;;;;;;68.17;37.20;;;;;;;6.71;88.30;95860.28;5031743;28;20942;-81
2020/12/22 06:43:39;;;;;;;59.67;33.27;;;;;;;6.74;87.46;95854.91;5032272;28;20492;-81
2020/12/22 06:46:08;;;;;;;56.23;31.10;;;;;;;6.79;88.02;95855.47;5032209;28;20531;-81
2020/12/22 06:48:44;;;;;;;54.70;29.00;;;;;;;6.74;87.22;95856.66;5032584;28;20485;-81
2020/12/22 06:51:27;;;;;;;47.30;27.60;;;;;;;6.56;87.37;95848.06;5030506;28;20945;-81
2020/12/22 06:53:53;;;;;;;55.17;29.13;;;;;;;6.58;87.93;95845.34;5032115;28;20473;-85
2020/12/22 06:56:40;;;;;;;53.23;28.50;;;;;;;6.24;88.45;95844.56;5033063;28;20468;-88
2020/12/22 06:59:08;;;;;;;62.13;30.00;;;;;;;6.03;91.24;95848.25;5033219;28;20458;-85
2020/12/22 07:01:35;;;;;;;57.70;32.37;;;;;;;6.30;90.68;95841.63;5033157;28;20501;-85
2020/12/22 07:04:15;;;;;;;59.10;31.10;;;;;;;6.40;89.55;95835.00;5033162;28;20450;-86
2020/12/22 07:06:49;;;;;;;62.87;32.80;;;;;;;6.55;89.42;95841.16;5032914;28;20448;-82
2020/12/22 07:09:17;;;;;;;68.57;31.53;;;;;;;6.65;88.78;95836.28;5032808;28;20866;-86
2020/12/22 07:11:44;;;;;;;64.10;29.30;;;;;;;6.82;97.69;95828.38;5032757;28;20450;-82
2020/12/22 07:14:14;;;;;;;51.33;27.13;;;;;;;7.04;97.75;95838.47;5032841;28;20524;-83
2020/12/22 07:16:58;;;;;;;48.93;25.40;;;;;;;7.32;94.00;95840.38;5032616;28;20446;-83
2020/12/22 07:19:30;;;;;;;38.27;19.70;;;;;;;7.61;93.67;95831.72;5034058;28;20449;-88
2020/12/22 07:21:58;;;;;;;46.03;24.07;;;;;;;8.07;100.00;95824.59;5036426;28;20490;-81
2020/12/22 07:24:26;;;;;;;42.47;23.27;;;;;;;7.98;91.59;95840.84;5036393;28;20568;-83
2020/12/22 07:26:53;;;;;;;29.60;17.63;;;;;;;8.11;88.85;95840.13;5038286;28;20538;-83
2020/12/22 07:29:20;;;;;;;64.70;30.87;;;;;;;8.06;82.58;95845.59;5112997;23;20903;-83
2020/12/22 07:31:46;;;;;;;58.67;32.20;;;;;;;7.95;82.66;95848.88;5036793;28;20791;-82
2020/12/22 07:34:13;;;;;;;62.53;34.13;;;;;;;7.91;83.87;95849.97;5036166;28;20477;-89
2020/12/22 07:36:39;;;;;;;48.77;25.30;;;;;;;7.85;82.68;95847.75;5034129;28;20454;-82
2020/12/22 07:39:15;;;;;;;62.97;30.20;;;;;;;7.83;82.55;95847.00;4998775;28;20455;-81
2020/12/22 07:41:42;;;;;;;69.97;34.20;;;;;;;7.69;83.02;95846.94;5016402;28;20487;-84
2020/12/22 07:44:10;;;;;;;71.87;36.83;;;;;;;7.58;83.81;95849.34;5016511;28;20493;-81
2020/12/22 07:46:37;;;;;;;68.43;33.90;;;;;;;7.54;83.97;95847.84;5016322;28;20443;-79
2020/12/22 07:49:05;;;;;;;50.80;28.73;;;;;;;7.51;84.23;95842.75;5017509;28;20448;-84
2020/12/22 07:51:32;;;;;;;47.73;28.80;;;;;;;7.53;83.46;95846.16;5018113;28;20447;-82
2020/12/22 07:54:05;;;;;;;51.80;27.93;;;;;;;7.52;83.49;95834.88;5016235;28;20439;-82
2020/12/22 07:56:35;;;;;;;45.13;26.97;;;;;;;7.50;83.48;95847.16;5016784;28;20961;-82
2020/12/22 07:59:03;;;;;;;54.07;28.43;;;;;;;7.53;83.77;95846.16;5017402;28;20995;-84
2020/12/22 08:01:39;;;;;;;55.77;31.77;;;;;;;7.53;83.71;95831.31;5017510;28;20489;-85
2020/12/22 08:04:13;;;;;;;55.43;31.63;;;;;;;7.50;84.20;95848.91;5016148;28;20440;-83
2020/12/22 08:06:40;;;;;;;59.37;30.83;;;;;;;7.55;84.67;95850.38;5015246;28;20444;-83
2020/12/22 08:09:07;;;;;;;55.63;30.43;;;;;;;7.64;84.59;95854.19;5026975;28;20600;-90
2020/12/22 08:11:35;;;;;;;52.47;26.80;;;;;;;7.55;83.73;95852.97;5034551;28;20435;-82
2020/12/22 08:14:03;;;;;;;54.00;29.70;;;;;;;7.52;83.70;95855.75;5034776;28;21016;-83
2020/12/22 08:16:33;;;;;;;47.83;27.80;;;;;;;7.33;84.14;95855.97;5034861;28;20501;-83
2020/12/22 08:19:01;;;;;;;46.90;26.40;;;;;;;7.36;84.56;95855.78;5034411;28;20490;-83
2020/12/22 08:21:28;;;;;;;46.00;24.33;;;;;;;7.39;84.48;95858.22;5034707;28;20477;-83
2020/12/22 08:23:55;;;;;;;44.27;22.67;;;;;;;7.37;84.42;95860.06;5035329;28;20446;-83
2020/12/22 08:26:22;;;;;;;47.87;21.10;;;;;;;7.20;83.38;95849.72;5034535;28;20464;-83
2020/12/22 08:28:54;;;;;;;47.80;22.77;;;;;;;6.91;84.97;95847.91;5035050;28;20454;-83
2020/12/22 08:31:26;;;;;;;43.90;24.83;;;;;;;7.20;85.67;95843.66;5034182;28;21056;-82
2020/12/22 08:33:55;;;;;;;57.53;27.57;;;;;;;7.07;85.93;95838.31;5020462;28;20837;-83
2020/12/22 08:36:23;;;;;;;60.10;29.77;;;;;;;7.10;86.19;95833.75;5015764;28;20443;-83
2020/12/22 08:38:49;;;;;;;51.47;26.20;;;;;;;7.15;85.80;95833.50;5026705;28;20957;-84
2020/12/22 08:41:17;;;;;;;46.90;24.50;;;;;;;7.08;85.62;95829.56;5034939;28;20489;-83
2020/12/22 08:43:48;;;;;;;43.90;24.47;;;;;;;6.94;86.97;95817.28;5033986;28;20562;-83
2020/12/22 08:46:18;;;;;;;52.40;26.30;;;;;;;7.24;100.00;95808.66;5034821;28;20465;-83
2020/12/22 08:48:44;;;;;;;53.33;27.03;;;;;;;6.83;88.69;95817.88;5034373;28;20446;-81
2020/12/22 08:51:11;;;;;;;55.23;25.90;;;;;;;6.75;88.55;95816.59;5034466;28;20438;-81
2020/12/22 08:53:49;;;;;;;60.20;27.60;;;;;;;6.86;88.37;95808.19;5034637;28;20442;-82
2020/12/22 08:56:16;;;;;;;45.63;25.87;;;;;;;6.83;88.52;95810.03;5034937;28;20458;-83
2020/12/22 08:58:57;;;;;;;61.20;29.60;;;;;;;6.77;89.35;95802.56;5034461;28;20446;-83
2020/12/22 09:01:26;;;;;;;54.07;26.20;;;;;;;6.81;88.79;95800.63;5033584;28;20505;-82
2020/12/22 09:03:55;;;;;;;48.23;25.40;;;;;;;6.87;89.37;95808.09;5033838;28;20980;-83
2020/12/22 09:06:33;;;;;;;57.63;25.27;;;;;;;6.81;89.29;95806.69;5006501;28;20439;-82
2020/12/22 09:09:00;;;;;;;56.83;28.83;;;;;;;6.86;89.09;95803.81;5027239;28;21002;-82
2020/12/22 09:11:26;;;;;;;53.27;29.70;;;;;;;6.98;89.05;95807.53;5034931;28;20867;-81
2020/12/22 09:14:04;;;;;;;59.03;28.60;;;;;;;7.09;89.00;95815.56;5034438;28;20454;-83
2020/12/22 09:16:45;;;;;;;59.63;30.90;;;;;;;7.08;88.71;95817.34;5034860;28;20829;-82
2020/12/22 09:19:11;;;;;;;54.43;29.17;;;;;;;7.15;87.79;95810.00;5034356;28;20447;-83
2020/12/22 09:21:38;;;;;;;53.63;28.13;;;;;;;7.13;87.18;95814.47;5033762;28;20484;-82
2020/12/22 09:24:05;;;;;;;58.37;33.13;;;;;;;7.18;87.47;95812.44;5033883;28;20508;-82
2020/12/22 09:26:31;;;;;;;64.90;31.63;;;;;;;7.04;87.88;95808.00;5033781;28;20441;-82
2020/12/22 09:28:57;;;;;;;63.03;30.43;;;;;;;7.09;87.37;95811.19;5034633;28;20804;-83
2020/12/22 09:31:24;;;;;;;59.60;31.13;;;;;;;6.96;87.68;95804.16;5036398;28;20446;-83
2020/12/22 09:33:52;;;;;;;58.83;30.67;;;;;;;6.83;88.63;95804.81;5035788;28;20450;-82
2020/12/22 09:36:18;;;;;;;64.63;31.87;;;;;;;6.86;88.55;95806.41;5034417;28;20453;-82
2020/12/22 09:38:45;;;;;;;64.67;33.20;;;;;;;6.76;89.32;95807.84;4999866;28;20443;-82
2020/12/22 09:41:11;;;;;;;65.90;31.23;;;;;;;6.89;88.86;95805.41;5035039;28;20535;-83
2020/12/22 09:43:38;;;;;;;67.33;36.07;;;;;;;7.04;89.31;95801.94;5034620;28;20889;-82
2020/12/22 09:46:04;;;;;;;73.30;34.20;;;;;;;7.12;87.48;95802.34;5034561;28;20481;-82
2020/12/22 09:48:30;;;;;;;67.63;35.47;;;;;;;7.22;87.69;95803.50;5035706;28;20438;-90
2020/12/22 09:50:58;;;;;;;59.23;32.63;;;;;;;7.25;86.41;95795.53;5036496;28;20923;-86
2020/12/22 09:53:24;;;;;;;66.40;31.93;;;;;;;7.27;86.56;95788.44;5035544;28;20801;-85
2020/12/22 09:55:51;;;;;;;63.13;33.27;;;;;;;7.24;86.09;95793.84;5036052;28;20454;-85
2020/12/22 09:58:17;;;;;;;65.13;30.37;;;;;;;7.27;86.35;95805.88;5035863;28;20459;-85
2020/12/22 10:00:44;;;;;;;65.10;30.27;;;;;;;7.25;85.84;95803.34;5037495;28;20821;-82
2020/12/22 10:03:11;;;;;;;73.33;34.23;;;;;;;7.20;86.43;95802.75;5037433;28;20813;-83
2020/12/22 10:05:39;;;;;;;69.20;34.30;;;;;;;7.02;86.87;95806.41;5036139;28;20454;-88
2020/12/22 10:08:07;;;;;;;81.00;35.70;;;;;;;7.14;86.79;95800.50;5042529;28;20449;-84
2020/12/22 10:10:36;;;;;;;925.70;262.00;;;;;;;11.09;100.00;95794.13;5021124;28;20824;-84
2020/12/22 10:13:03;;;;;;;380.47;93.93;;;;;;;11.27;100.00;95799.81;5055764;28;20452;-83
2020/12/22 10:15:29;;;;;;;77.47;37.00;;;;;;;10.96;83.24;95798.56;5020080;28;20946;-84
2020/12/22 10:17:56;;;;;;;65.97;35.57;;;;;;;10.75;75.62;95789.63;5057034;28;20461;-88
2020/12/22 10:20:22;;;;;;;67.30;37.43;;;;;;;10.40;73.48;95787.66;5020515;28;20812;-82
2020/12/22 10:22:48;;;;;;;119.73;41.70;;;;;;;12.18;88.70;95779.00;5054752;28;20488;-82
2020/12/22 10:25:16;;;;;;;59.03;31.27;;;;;;;11.33;68.99;95775.75;5035995;28;20448;-80
2020/12/22 10:27:42;;;;;;;61.63;33.57;;;;;;;10.59;71.15;95760.16;5018561;28;20463;-81
2020/12/22 10:30:09;;;;;;;55.43;31.60;;;;;;;10.29;72.44;95769.22;5054711;28;20893;-85
2020/12/22 10:32:35;;;;;;;58.70;30.90;;;;;;;9.74;73.51;95772.97;5055367;28;20464;-82
2020/12/22 10:35:02;;;;;;;48.77;29.07;;;;;;;9.27;75.68;95753.41;5055597;28;20452;-83
2020/12/22 10:37:29;;;;;;;55.53;31.30;;;;;;;9.17;76.74;95752.31;5044894;28;20937;-83
2020/12/22 10:39:55;;;;;;;64.63;30.63;;;;;;;8.95;78.04;95754.63;5034957;28;20804;-81
2020/12/22 10:42:22;;;;;;;57.27;30.80;;;;;;;8.68;79.14;95746.81;5035829;28;20562;-83
2020/12/22 10:44:49;;;;;;;49.67;28.27;;;;;;;8.55;79.83;95751.13;5034904;28;20450;-83
2020/12/22 10:47:15;;;;;;;49.43;28.40;;;;;;;8.41;80.16;95744.16;5036212;28;20443;-83
2020/12/22 10:49:41;;;;;;;54.60;30.00;;;;;;;8.38;81.04;95752.16;5036285;28;20813;-89
2020/12/22 10:52:08;;;;;;;51.53;28.83;;;;;;;8.26;81.82;95760.75;5035781;28;20450;-84
2020/12/22 10:54:35;;;;;;;49.33;28.00;;;;;;;7.88;82.84;95758.72;5037307;28;20469;-83
2020/12/22 10:57:01;;;;;;;52.50;27.77;;;;;;;7.82;83.91;95760.84;5039030;28;20442;-84
2020/12/22 10:59:28;;;;;;;58.90;31.27;;;;;;;7.70;83.99;95750.19;5038654;28;20977;-85
2020/12/22 11:01:56;;;;;;;55.93;29.40;;;;;;;7.61;84.26;95745.53;5037452;28;20536;-83
2020/12/22 11:04:23;;;;;;;53.87;31.20;;;;;;;7.68;84.35;95744.22;5038414;28;20541;-83
2020/12/22 11:06:58;;;;;;;58.40;26.87;;;;;;;7.70;84.67;95725.84;5037637;28;20450;-83
2020/12/22 11:09:25;;;;;;;58.67;28.90;;;;;;;7.69;84.35;95727.63;5055384;28;20476;-84
2020/12/22 11:11:52;;;;;;;50.77;29.07;;;;;;;7.70;84.84;95713.63;5057657;28;20437;-84
2020/12/22 11:14:18;;;;;;;53.33;26.73;;;;;;;7.77;84.38;95721.91;5061561;28;20464;-84
2020/12/22 11:16:46;;;;;;;55.80;27.90;;;;;;;7.89;84.28;95722.97;5057373;28;20457;-84
2020/12/22 11:19:13;;;;;;;61.20;29.77;;;;;;;8.01;84.41;95712.59;5057836;28;20466;-84
2020/12/22 11:21:43;;;;;;;60.53;34.23;;;;;;;8.04;83.57;95715.00;5057305;28;20478;-84
2020/12/22 11:24:09;;;;;;;63.03;33.47;;;;;;;8.01;83.78;95715.19;5056753;28;20548;-84
2020/12/22 11:26:37;;;;;;;56.57;29.17;;;;;;;8.08;82.73;95713.88;5056561;28;20515;-84
2020/12/22 11:29:04;;;;;;;49.93;25.93;;;;;;;8.12;81.91;95716.34;5056027;28;20461;-85